Time;durP1;ratioP1;P1;durP2;ratioP2;P2;SDS_P1;SDS_P2;PMS_P1;PMS_P2;Temp;Humidity;BMP_temperature;BMP_pressure;BME280_temperature;BME280_humidity;BME280_pressure;Samples;Min_cycle;Max_cycle;Signal;HPM_P1;HPM_P2
2022/10/27 06:45:00;;;;;;;4.93;4.03;;;12.30;99.90;;;;;;5087787;27;20811;-54
2022/10/27 06:47:26;;;;;;;3.03;2.80;;;12.60;99.90;;;;;;5086936;28;20179;-55
2022/10/27 06:49:51;;;;;;;3.20;2.97;;;13.80;99.90;;;;;;5078570;28;20242;-59
2022/10/27 06:52:17;;;;;;;3.43;3.17;;;14.70;99.90;;;;;;5075956;28;20172;-55
2022/10/27 06:54:42;;;;;;;5.77;5.27;;;15.30;99.90;;;;;;5067156;28;20189;-54
2022/10/27 06:57:08;;;;;;;7.63;6.93;;;15.90;99.90;;;;;;5067071;28;20188;-58
2022/10/27 06:59:34;;;;;;;8.17;7.30;;;;;;;;;;5065672;28;20251;-59
2022/10/27 07:01:59;;;;;;;8.30;7.50;;;16.20;99.90;;;;;;5066573;28;20188;-56
2022/10/27 07:04:25;;;;;;;4.57;4.17;;;16.50;99.90;;;;;;5066460;28;20587;-57
2022/10/27 07:06:51;;;;;;;3.37;3.17;;;16.90;99.90;;;;;;5074299;28;20690;-58
2022/10/27 07:09:16;;;;;;;4.10;3.43;;;;;;;;;;5067564;28;20541;-56
2022/10/27 07:11:42;;;;;;;3.20;2.90;;;16.80;99.90;;;;;;5066845;28;20273;-59
2022/10/27 07:14:08;;;;;;;3.93;3.20;;;;;;;;;;5066515;28;20210;-60
2022/10/27 07:16:34;;;;;;;3.63;3.10;;;;;;;;;;5067293;28;20189;-60
2022/10/27 07:19:00;;;;;;;3.93;3.50;;;;;;;;;;5066760;28;20202;-58
2022/10/27 07:21:26;;;;;;;4.40;3.00;;;;;;;;;;5057179;28;20205;-61
2022/10/27 07:23:52;;;;;;;4.30;3.10;;;18.30;99.90;;;;;;5065395;28;20254;-59
2022/10/27 07:26:18;;;;;;;3.20;2.90;;;;;;;;;;5075453;28;20282;-60
2022/10/27 07:28:44;;;;;;;5.13;3.07;;;;;;;;;;5066519;28;20552;-61
2022/10/27 07:31:10;;;;;;;3.40;3.00;;;;;;;;;;5067089;28;20250;-60
2022/10/27 07:33:36;;;;;;;3.37;2.67;;;;;;;;;;5066481;28;20644;-61
2022/10/27 07:36:02;;;;;;;3.10;2.80;;;;;;;;;;5066159;28;20504;-60
2022/10/27 07:38:28;;;;;;;3.80;3.00;;;;;;;;;;5064999;28;20182;-60
2022/10/27 07:40:55;;;;;;;5.68;2.40;;;22.70;99.90;;;;;;5066363;28;20203;-58
2022/10/27 07:43:21;;;;;;;2.10;1.90;;;;;;;;;;5073511;28;20240;-57
2022/10/27 07:45:46;;;;;;;1.98;1.88;;;24.30;99.90;;;;;;5086850;28;20170;-57
2022/10/27 07:48:14;;;;;;;2.72;2.53;;;25.80;99.90;;;;;;5086466;28;20170;-60
2022/10/27 07:50:40;;;;;;;2.65;2.38;;;27.20;99.90;;;;;;5086268;28;20182;-59
2022/10/27 07:53:06;;;;;;;2.78;2.20;;;;;;;;;;5086150;28;20185;-62
2022/10/27 07:55:35;;;;;;;2.50;2.20;;;30.30;99.90;;;;;;5077079;28;20248;-61
2022/10/27 07:58:06;;;;;;;6.32;2.40;;;31.00;96.80;;;;;;5073789;28;20175;-61
2022/10/27 08:00:33;;;;;;;2.05;1.95;;;32.30;88.90;;;;;;5073483;28;20244;-59
2022/10/27 08:03:00;;;;;;;2.20;2.00;;;;;;;;;;5086361;28;20264;-58
2022/10/27 08:05:26;;;;;;;3.80;2.13;;;;;;;;;;5074613;28;20639;-61
2022/10/27 08:07:56;;;;;;;2.03;1.83;;;;;;;;;;5081661;28;20186;-60
2022/10/27 08:10:22;;;;;;;3.95;2.05;;;;;;;;;;5081504;28;20198;-63
2022/10/27 08:12:48;;;;;;;4.70;2.22;;;;;;;;;;5072915;28;20176;-61
2022/10/27 08:15:13;;;;;;;2.58;2.10;;;;;;;;;;5055052;28;20181;-61
2022/10/27 08:17:39;;;;;;;2.17;1.90;;;;;;;;;;5073531;28;20257;-60
2022/10/27 08:20:07;;;;;;;2.50;2.10;;;41.90;67.00;;;;;;5072731;28;20194;-61
2022/10/27 08:22:33;;;;;;;2.50;2.30;;;;;;;;;;5073442;28;20170;-61
2022/10/27 08:24:59;;;;;;;3.40;2.50;;;;;;;;;;5072468;28;20680;-61
2022/10/27 08:27:24;;;;;;;2.40;2.20;;;43.70;61.90;;;;;;5073161;28;20173;-59
2022/10/27 08:29:50;;;;;;;7.15;2.90;;;43.80;46.20;;;;;;5064371;28;20190;-59
2022/10/27 08:32:16;;;;;;;3.80;2.60;;;43.70;47.30;;;;;;5072982;28;20173;-61
2022/10/27 08:34:42;;;;;;;3.45;2.10;;;43.60;47.10;;;;;;5072195;28;20178;-61
2022/10/27 08:37:07;;;;;;;2.80;2.47;;;43.70;47.00;;;;;;5073170;28;20166;-60
2022/10/27 08:39:33;;;;;;;2.67;2.30;;;44.20;46.60;;;;;;5072358;28;20694;-60
2022/10/27 08:42:17;;;;;;;4.40;2.42;;;44.90;45.70;;;;;;5072835;28;20174;-60
2022/10/27 08:44:52;;;;;;;5.07;2.58;;;45.90;45.10;;;;;;5057931;28;20210;-61
2022/10/27 08:47:22;;;;;;;4.93;2.80;;;46.50;42.30;;;;;;5067402;28;20180;-59
2022/10/27 08:49:53;;;;;;;2.58;2.00;;;46.30;43.10;;;;;;5072664;28;20269;-60
2022/10/27 08:52:37;;;;;;;2.60;2.20;;;47.00;42.40;;;;;;5064868;28;20548;-62
2022/10/27 08:55:11;;;;;;;3.08;2.58;;;47.80;41.30;;;;;;5071422;28;20667;-61
2022/10/27 08:57:37;;;;;;;2.50;2.20;;;48.80;40.20;;;;;;5072448;28;20173;-61
2022/10/27 09:00:05;;;;;;;3.30;2.20;;;49.60;39.10;;;;;;5069634;28;20663;-61
2022/10/27 09:02:45;;;;;;;2.67;2.30;;;50.30;38.00;;;;;;5069946;28;20315;-61
2022/10/27 09:05:52;;;;;;;2.65;2.22;;;50.90;35.30;;;;;;5071864;28;20158;-61
2022/10/27 09:08:41;;;;;;;2.33;2.10;;;50.60;35.90;;;;;;5008421;28;20183;-61
2022/10/27 09:11:20;;;;;;;2.65;2.20;;;51.20;35.70;;;;;;5010138;28;20693;-62
2022/10/27 09:14:13;;;;;;;4.22;2.00;;;51.00;33.30;;;;;;5009896;28;20215;-61
2022/10/27 09:17:08;;;;;;;3.10;2.33;;;50.50;35.00;;;;;;5009926;28;20263;-62
2022/10/27 09:19:42;;;;;;;3.03;2.30;;;51.00;34.30;;;;;;4988552;28;20208;-62
2022/10/27 09:22:14;;;;;;;4.25;2.13;;;51.50;33.40;;;;;;4989557;28;20187;-62
2022/10/27 09:24:39;;;;;;;2.47;1.83;;;51.80;33.20;;;;;;4990511;28;20168;-63
2022/10/27 09:27:06;;;;;;;2.10;1.88;;;52.00;33.10;;;;;;4990691;28;20180;-63
2022/10/27 09:29:35;;;;;;;3.72;2.28;;;52.80;31.00;;;;;;4990472;28;20185;-63
2022/10/27 09:32:22;;;;;;;2.85;1.98;;;52.80;32.40;;;;;;4990597;28;20331;-63
2022/10/27 09:35:01;;;;;;;1.88;1.77;;;52.90;31.70;;;;;;4979924;28;20307;-63
2022/10/27 09:37:28;;;;;;;4.38;2.00;;;53.00;32.00;;;;;;4990257;28;20259;-61
2022/10/27 09:39:56;;;;;;;2.72;2.28;;;53.40;32.10;;;;;;5057666;28;20205;-61
2022/10/27 09:42:21;;;;;;;2.15;1.95;;;52.20;31.30;;;;;;5071767;28;20178;-62
2022/10/27 09:44:54;;;;;;;4.47;2.45;;;50.90;32.40;;;;;;5070371;28;20178;-63
2022/10/27 09:47:23;;;;;;;3.65;2.15;;;51.80;34.60;;;;;;5049869;28;20265;-63
2022/10/27 09:49:49;;;;;;;3.90;2.10;;;52.80;41.70;;;;;;5051460;28;20202;-62
2022/10/27 09:52:18;;;;;;;2.75;2.13;;;52.90;31.20;;;;;;5060257;28;20166;-63
2022/10/27 09:54:55;;;;;;;3.38;2.10;;;52.80;50.30;;;;;;5071085;28;20218;-62
2022/10/27 09:57:26;;;;;;;3.72;2.30;;;52.70;40.00;;;;;;5070428;28;20168;-62
2022/10/27 09:59:58;;;;;;;6.00;2.47;;;52.60;29.70;;;;;;5071153;28;20300;-63
2022/10/27 10:02:32;;;;;;;3.95;2.00;;;53.00;30.10;;;;;;5070826;28;20166;-61
2022/10/27 10:04:59;;;;;;;2.95;2.33;;;;;;;;;;5071647;28;20580;-63
2022/10/27 10:07:36;;;;;;;2.75;2.20;;;51.70;36.70;;;;;;5071561;28;20571;-61
2022/10/27 10:10:22;;;;;;;2.03;1.80;;;52.10;29.70;;;;;;5071606;28;20319;-63
2022/10/27 10:13:14;;;;;;;3.05;2.17;;;52.80;29.80;;;;;;5071302;28;20227;-62
2022/10/27 10:15:42;;;;;;;3.03;2.15;;;53.10;29.60;;;;;;5068730;28;20193;-63
2022/10/27 10:18:39;;;;;;;4.07;2.03;;;53.60;29.20;;;;;;5069656;28;20173;-63
2022/10/27 10:21:07;;;;;;;4.80;2.20;;;54.00;29.00;;;;;;5008288;28;20231;-64
2022/10/27 10:23:43;;;;;;;4.45;2.72;;;53.20;29.70;;;;;;5007876;28;20222;-62
2022/10/27 10:26:35;;;;;;;3.83;2.33;;;52.90;30.70;;;;;;5008164;28;20270;-61
2022/10/27 10:29:12;;;;;;;4.85;2.20;;;51.70;35.10;;;;;;5006410;28;20223;-62
2022/10/27 10:31:38;;;;;;;4.35;2.35;;;51.80;29.90;;;;;;5009192;28;20194;-62
2022/10/27 10:34:07;;;;;;;4.30;2.10;;;51.40;30.10;;;;;;5008883;28;20196;-62
2022/10/27 10:36:34;;;;;;;4.95;2.22;;;52.10;41.00;;;;;;5009174;28;20165;-62
2022/10/27 10:39:00;;;;;;;2.40;1.90;;;52.60;35.20;;;;;;5008818;28;20306;-63
2022/10/27 10:41:27;;;;;;;4.00;1.90;;;53.50;32.50;;;;;;4993747;28;20259;-63
2022/10/27 10:44:16;;;;;;;3.22;2.28;;;53.70;29.40;;;;;;4987862;28;20196;-62
2022/10/27 10:46:55;;;;;;;3.55;1.90;;;54.70;34.80;;;;;;4988412;28;20184;-63
2022/10/27 10:49:25;;;;;;;3.97;2.35;;;54.70;35.90;;;;;;4986196;28;20988;-62
2022/10/27 10:52:04;;;;;;;4.10;2.28;;;55.00;34.70;;;;;;4989986;28;21039;-63
2022/10/27 10:54:41;;;;;;;2.53;2.10;;;55.80;44.30;;;;;;4988831;28;20227;-63
2022/10/27 10:57:22;;;;;;;2.45;1.85;;;55.30;35.30;;;;;;5026860;28;20659;-62
2022/10/27 10:59:52;;;;;;;2.47;1.55;;;56.00;28.30;;;;;;5066533;28;20229;-63
2022/10/27 11:02:26;;;;;;;2.28;1.92;;;55.00;32.80;;;;;;5066993;28;20635;-62
2022/10/27 11:04:52;;;;;;;3.40;2.20;;;55.00;27.50;;;;;;5070689;28;20263;-63
2022/10/27 11:07:23;;;;;;;4.82;2.33;;;54.90;33.90;;;;;;5070541;28;20243;-60
2022/10/27 11:09:58;;;;;;;5.57;2.25;;;55.30;27.40;;;;;;5050722;28;20281;-60
2022/10/27 11:12:59;;;;;;;4.40;2.40;;;55.00;31.40;;;;;;5050436;28;20570;-60
2022/10/27 11:15:31;;;;;;;2.33;1.80;;;55.20;27.80;;;;;;5051674;28;20178;-63
2022/10/27 11:18:15;;;;;;;3.15;2.03;;;55.70;34.10;;;;;;5050876;28;20243;-65
2022/10/27 11:20:42;;;;;;;4.63;2.33;;;55.40;37.90;;;;;;5050476;28;20182;-63
2022/10/27 11:23:17;;;;;;;3.80;2.40;;;55.20;27.70;;;;;;5050250;28;20240;-59
2022/10/27 11:25:44;;;;;;;4.47;2.42;;;54.10;35.60;;;;;;5050727;28;20167;-62
2022/10/27 11:28:30;;;;;;;3.60;2.20;;;53.10;37.50;;;;;;5050436;28;20178;-62
2022/10/27 11:31:28;;;;;;;3.08;2.13;;;52.70;36.30;;;;;;5052549;28;20285;-62
2022/10/27 11:34:08;;;;;;;3.65;2.38;;;51.50;32.20;;;;;;5053830;28;20225;-63
2022/10/27 11:36:43;;;;;;;3.63;2.45;;;50.60;30.00;;;;;;5054379;28;20253;-62
2022/10/27 11:39:17;;;;;;;3.38;2.20;;;49.70;40.20;;;;;;5054155;28;20667;-61
2022/10/27 11:41:53;;;;;;;2.33;2.08;;;50.40;39.20;;;;;;5054210;28;20167;-62
2022/10/27 11:44:19;;;;;;;3.10;2.10;;;;;;;;;;5057131;28;20182;-59
2022/10/27 11:46:51;;;;;;;4.65;2.40;;;50.50;29.80;;;;;;5073755;28;20181;-63
2022/10/27 11:49:47;;;;;;;3.75;2.50;;;49.40;31.40;;;;;;5073771;28;20285;-64
2022/10/27 11:52:25;;;;;;;2.72;2.20;;;48.70;48.30;;;;;;5074023;28;20569;-63
2022/10/27 11:54:51;;;;;;;4.32;2.30;;;48.70;43.40;;;;;;5073625;28;20202;-62
2022/10/27 11:57:57;;;;;;;7.80;2.50;;;48.70;31.00;;;;;;5073820;28;20285;-64
2022/10/27 12:00:27;;;;;;;2.85;2.25;;;49.20;30.70;;;;;;4992232;28;20200;-62
2022/10/27 12:03:04;;;;;;;3.30;1.80;;;48.90;39.20;;;;;;4992124;28;20189;-62
2022/10/27 12:05:54;;;;;;;6.38;2.85;;;48.40;31.60;;;;;;4992298;28;20196;-62
2022/10/27 12:08:35;;;;;;;5.88;2.13;;;48.30;34.70;;;;;;4991914;28;20292;-61
2022/10/27 12:11:25;;;;;;;5.38;2.60;;;48.30;39.30;;;;;;4992030;28;20217;-63
2022/10/27 12:13:56;;;;;;;5.30;2.35;;;47.70;41.60;;;;;;4991597;28;20250;-63
2022/10/27 12:16:44;;;;;;;4.97;2.35;;;46.20;40.20;;;;;;4992481;28;20185;-61
2022/10/27 12:19:17;;;;;;;3.60;2.30;;;46.80;32.10;;;;;;4991924;28;20601;-62
2022/10/27 12:21:51;;;;;;;2.28;1.98;;;47.10;32.50;;;;;;4992005;28;20212;-60
2022/10/27 12:24:26;;;;;;;4.35;2.10;;;47.30;31.60;;;;;;4991513;28;20227;-63
2022/10/27 12:27:04;;;;;;;3.17;1.92;;;47.70;41.40;;;;;;4991967;28;20176;-62
2022/10/27 12:29:35;;;;;;;2.50;2.03;;;46.50;31.70;;;;;;4991606;28;20200;-62
2022/10/27 12:32:23;;;;;;;4.18;1.95;;;46.40;32.50;;;;;;4991400;28;20251;-64
2022/10/27 12:35:02;;;;;;;2.85;2.00;;;45.60;46.60;;;;;;5049730;28;20221;-63
2022/10/27 12:37:45;;;;;;;4.95;1.90;;;46.00;36.80;;;;;;5072918;28;20240;-63
2022/10/27 12:40:23;;;;;;;4.40;2.30;;;45.20;33.70;;;;;;5072819;28;20738;-62
2022/10/27 12:42:57;;;;;;;3.90;2.28;;;45.40;44.60;;;;;;5073209;28;20157;-62
2022/10/27 12:45:44;;;;;;;5.93;2.55;;;43.80;45.60;;;;;;5072924;28;20166;-62
2022/10/27 12:48:38;;;;;;;2.45;2.10;;;41.20;62.10;;;;;;5073274;28;20185;-64
2022/10/27 12:51:22;;;;;;;2.83;2.00;;;40.20;45.30;;;;;;5073050;28;20532;-63
2022/10/27 12:54:10;;;;;;;4.88;2.55;;;40.20;38.00;;;;;;5071223;28;20229;-64
2022/10/27 12:56:45;;;;;;;7.88;2.55;;;38.40;50.00;;;;;;5072157;28;20154;-60
2022/10/27 12:59:22;;;;;;;4.60;2.53;;;37.90;41.80;;;;;;5072899;28;20189;-64
2022/10/27 13:01:57;;;;;;;2.85;2.38;;;38.30;41.60;;;;;;5072630;28;20169;-62
2022/10/27 13:04:47;;;;;;;2.88;2.30;;;37.40;51.70;;;;;;5072605;28;20160;-62
2022/10/27 13:07:34;;;;;;;4.25;2.50;;;36.60;45.60;;;;;;5072717;28;20578;-63
2022/10/27 13:10:11;;;;;;;3.80;2.50;;;36.20;44.40;;;;;;5072476;28;20531;-65
2022/10/27 13:12:47;;;;;;;3.00;2.30;;;36.20;45.80;;;;;;5072537;28;20257;-63
2022/10/27 13:15:40;;;;;;;4.93;2.50;;;35.30;51.00;;;;;;5072087;28;20172;-63
2022/10/27 13:18:30;;;;;;;2.42;2.15;;;35.60;48.60;;;;;;5067849;28;20174;-63
2022/10/27 13:21:01;;;;;;;4.15;2.30;;;35.20;44.60;;;;;;5071816;28;20269;-62
2022/10/27 13:23:44;;;;;;;3.92;2.22;;;35.60;45.00;;;;;;5071720;28;20673;-64
2022/10/27 13:26:28;;;;;;;5.43;2.30;;;35.50;45.90;;;;;;5072322;28;20155;-64
2022/10/27 13:29:02;;;;;;;3.85;2.20;;;35.60;45.80;;;;;;5071894;28;20189;-62
2022/10/27 13:31:28;;;;;;;5.32;2.33;;;35.40;45.90;;;;;;5072094;28;20177;-62
2022/10/27 13:34:08;;;;;;;6.85;2.50;;;35.00;46.70;;;;;;5071620;28;20270;-63
2022/10/27 13:36:35;;;;;;;5.68;2.67;;;34.80;46.80;;;;;;5072225;28;20170;-62
2022/10/27 13:39:13;;;;;;;4.40;2.60;;;34.20;47.60;;;;;;5071817;28;20166;-61
2022/10/27 13:42:03;;;;;;;2.97;2.08;;;33.80;48.70;;;;;;5072072;28;20197;-63
2022/10/27 13:44:30;;;;;;;5.22;2.10;;;34.10;49.00;;;;;;5071118;28;20213;-61
2022/10/27 13:47:02;;;;;;;4.20;2.70;;;34.60;47.80;;;;;;5070368;28;20619;-63
2022/10/27 13:49:49;;;;;;;6.15;2.72;;;34.50;56.20;;;;;;5072959;28;20190;-62
2022/10/27 13:52:15;;;;;;;2.75;2.30;;;;;;;;;;5071746;28;20174;-62
2022/10/27 13:54:50;;;;;;;8.48;2.40;;;34.20;52.30;;;;;;5071022;28;20236;-64
2022/10/27 13:57:30;;;;;;;3.83;2.65;;;;;;;;;;5071627;28;20189;-63
2022/10/27 14:00:00;;;;;;;5.15;2.65;;;;;;;;;;5071519;28;20226;-63
2022/10/27 14:02:36;;;;;;;3.92;2.13;;;33.30;49.90;;;;;;5070753;28;20206;-58
2022/10/27 14:05:12;;;;;;;3.58;2.20;;;33.30;54.80;;;;;;5063203;28;20678;-63
2022/10/27 14:07:38;;;;;;;3.70;2.40;;;33.10;59.30;;;;;;5071054;28;20189;-62
2022/10/27 14:10:04;;;;;;;3.40;2.30;;;32.40;64.00;;;;;;5062633;28;20566;-61
2022/10/27 14:12:33;;;;;;;3.92;2.50;;;31.90;61.00;;;;;;5070197;28;20182;-60
2022/10/27 14:15:16;;;;;;;2.15;1.90;;;31.90;65.90;;;;;;5064262;28;20189;-58
2022/10/27 14:17:45;;;;;;;2.10;1.90;;;32.10;53.90;;;;;;5065469;28;20191;-62
2022/10/27 14:20:39;;;;;;;3.05;2.30;;;32.50;67.60;;;;;;5070757;28;20194;-61
2022/10/27 14:23:11;;;;;;;5.28;2.53;;;32.30;52.00;;;;;;5068566;28;20179;-58
2022/10/27 14:25:37;;;;;;;4.07;2.50;;;;;;;;;;5070306;28;20217;-65
2022/10/27 14:28:12;;;;;;;4.68;2.15;;;32.20;77.00;;;;;;5071280;28;20171;-60
2022/10/27 14:30:38;;;;;;;3.55;2.38;;;32.10;71.60;;;;;;5071010;28;20187;-62
2022/10/27 14:33:24;;;;;;;4.63;2.33;;;31.90;52.80;;;;;;5071189;28;20531;-61
2022/10/27 14:36:14;;;;;;;3.95;2.40;;;31.90;65.30;;;;;;5071237;28;20167;-63
2022/10/27 14:38:58;;;;;;;4.18;2.70;;;31.60;62.80;;;;;;5071357;28;20167;-63
2022/10/27 14:41:30;;;;;;;4.95;2.15;;;31.60;53.60;;;;;;5071435;28;20648;-60
2022/10/27 14:43:58;;;;;;;3.00;2.30;;;31.70;59.60;;;;;;5069750;28;20224;-62
2022/10/27 14:46:27;;;;;;;3.70;2.22;;;31.60;53.40;;;;;;5071029;28;20194;-65
2022/10/27 14:48:58;;;;;;;3.17;2.30;;;31.50;63.40;;;;;;5071058;28;20202;-62
2022/10/27 14:51:24;;;;;;;3.42;2.20;;;30.50;66.90;;;;;;5071100;28;20175;-62
2022/10/27 14:53:52;;;;;;;4.72;2.03;;;30.10;70.20;;;;;;5070840;28;20194;-60
2022/10/27 14:56:23;;;;;;;7.40;2.15;;;30.10;65.90;;;;;;5071011;28;20213;-63
2022/10/27 14:58:55;;;;;;;3.70;1.83;;;29.90;56.90;;;;;;5071405;28;20170;-63
2022/10/27 15:01:26;;;;;;;3.63;1.92;;;29.60;78.70;;;;;;5071024;28;20200;-63
2022/10/27 15:03:52;;;;;;;3.65;2.08;;;;;;;;;;5071023;28;20174;-60
2022/10/27 15:06:19;;;;;;;2.55;1.95;;;29.50;66.40;;;;;;5073951;28;20171;-63
2022/10/27 15:08:47;;;;;;;5.00;2.60;;;29.10;77.30;;;;;;5075094;28;20252;-63
2022/10/27 15:11:19;;;;;;;3.92;2.50;;;29.20;73.30;;;;;;5074944;28;20186;-64
2022/10/27 15:13:45;;;;;;;3.45;2.60;;;29.10;60.90;;;;;;5074485;28;20194;-64
2022/10/27 15:16:18;;;;;;;5.57;2.97;;;29.40;62.00;;;;;;5074843;28;20247;-63
2022/10/27 15:18:45;;;;;;;3.05;2.75;;;28.80;85.90;;;;;;5066495;28;20175;-61
2022/10/27 15:21:20;;;;;;;4.80;3.00;;;28.70;63.00;;;;;;5074716;28;20214;-62
2022/10/27 15:23:47;;;;;;;9.25;2.63;;;28.50;88.80;;;;;;5074440;28;20675;-63
2022/10/27 15:26:23;;;;;;;4.57;2.65;;;28.10;76.80;;;;;;5074697;28;20174;-62
2022/10/27 15:28:49;;;;;;;5.43;2.60;;;;;;;;;;5074526;28;20269;-63
2022/10/27 15:31:15;;;;;;;3.42;2.30;;;28.10;73.70;;;;;;5074675;28;20262;-64
2022/10/27 15:33:42;;;;;;;8.43;2.88;;;;;;;;;;5074069;28;20625;-65
2022/10/27 15:36:13;;;;;;;7.05;2.83;;;27.70;79.70;;;;;;5074578;28;20169;-63
2022/10/27 15:38:40;;;;;;;4.97;2.65;;;27.90;94.30;;;;;;5074345;28;20167;-63
2022/10/27 15:41:06;;;;;;;4.85;2.42;;;;;;;;;;5074044;28;20273;-64
2022/10/27 15:43:32;;;;;;;2.72;2.20;;;27.20;73.70;;;;;;5074041;28;20190;-63
2022/10/27 15:46:18;;;;;;;6.82;3.08;;;;;;;;;;5074204;28;20167;-65
2022/10/27 15:49:13;;;;;;;6.55;2.72;;;26.80;83.80;;;;;;5074421;28;20551;-61
2022/10/27 15:51:49;;;;;;;4.25;2.83;;;26.50;95.40;;;;;;5074288;28;20154;-59
2022/10/27 15:55:03;;;;;;;7.13;3.38;;;26.20;89.60;;;;;;5074077;28;20613;-64
2022/10/27 15:57:37;;;;;;;7.70;3.45;;;26.00;79.70;;;;;;5072231;28;20178;-63
2022/10/27 16:00:12;;;;;;;7.43;3.67;;;25.50;93.00;;;;;;5073875;28;20189;-64
2022/10/27 16:02:44;;;;;;;7.53;3.30;;;25.10;84.80;;;;;;5073940;28;20194;-61
2022/10/27 16:05:36;;;;;;;6.22;3.28;;;24.80;85.90;;;;;;5073778;28;20179;-62
2022/10/27 16:08:05;;;;;;;5.40;3.20;;;24.60;87.60;;;;;;5073886;28;20177;-62
2022/10/27 16:10:31;;;;;;;5.07;2.97;;;;;;;;;;5073889;28;20201;-62
2022/10/27 16:12:57;;;;;;;6.00;3.17;;;;;;;;;;5073652;28;20177;-61
2022/10/27 16:15:24;;;;;;;5.45;3.33;;;24.40;99.90;;;;;;5073335;28;20210;-62
2022/10/27 16:17:53;;;;;;;6.40;3.17;;;24.20;92.50;;;;;;5073668;28;20250;-62
2022/10/27 16:20:21;;;;;;;6.38;2.85;;;24.10;99.90;;;;;;5073571;28;20225;-59
2022/10/27 16:22:47;;;;;;;4.80;2.90;;;24.10;93.50;;;;;;5073594;28;20162;-61
2022/10/27 16:25:18;;;;;;;6.45;3.20;;;23.60;98.20;;;;;;5069551;28;20178;-62
2022/10/27 16:27:44;;;;;;;6.10;3.00;;;23.90;99.90;;;;;;5071901;28;20249;-60
2022/10/27 16:30:16;;;;;;;6.18;3.58;;;23.60;93.80;;;;;;5073351;28;20610;-62
2022/10/27 16:32:43;;;;;;;6.22;3.05;;;23.20;99.20;;;;;;5073267;28;20186;-60
2022/10/27 16:35:17;;;;;;;6.07;3.50;;;23.30;94.90;;;;;;5073065;28;20579;-62
2022/10/27 16:37:42;;;;;;;9.27;5.93;;;23.00;97.00;;;;;;5073407;28;20198;-62
2022/10/27 16:40:16;;;;;;;12.60;7.10;;;23.00;99.90;;;;;;5073205;28;20225;-62
2022/10/27 16:42:45;;;;;;;9.35;6.82;;;23.00;96.00;;;;;;5073376;28;20273;-63
2022/10/27 16:45:16;;;;;;;12.07;6.40;;;23.10;96.50;;;;;;5072782;28;20249;-61
2022/10/27 16:47:42;;;;;;;14.13;8.17;;;23.10;96.90;;;;;;5073152;28;20156;-63
2022/10/27 16:50:09;;;;;;;10.57;6.53;;;23.10;99.90;;;;;;5072858;28;20189;-60
2022/10/27 16:52:35;;;;;;;9.07;5.37;;;;;;;;;;5073108;28;20723;-60
2022/10/27 16:55:02;;;;;;;7.57;5.27;;;;;;;;;;5054546;28;20285;-62
2022/10/27 16:57:27;;;;;;;10.23;5.10;;;22.70;99.90;;;;;;5073275;28;20194;-58
2022/10/27 16:59:53;;;;;;;6.97;4.80;;;22.90;99.90;;;;;;5072520;28;20542;-58
2022/10/27 17:02:18;;;;;;;7.43;4.80;;;22.90;99.90;;;;;;5072940;28;20578;-58
2022/10/27 17:04:44;;;;;;;5.83;4.37;;;22.50;99.90;;;;;;5054410;28;20248;-59
2022/10/27 17:07:10;;;;;;;6.00;4.03;;;;;;;;;;5072337;28;20189;-60
2022/10/27 17:09:36;;;;;;;6.13;4.80;;;;;;;;;;5064167;28;20301;-54
2022/10/27 17:12:02;;;;;;;6.13;4.33;;;;;;;;;;5064198;28;20187;-63
2022/10/27 17:14:32;;;;;;;8.30;3.97;;;;;;;;;;5071153;28;20264;-60
2022/10/27 17:16:58;;;;;;;6.20;3.73;;;;;;;;;;5117148;22;20239;-60
2022/10/27 17:19:24;;;;;;;5.20;3.50;;;;;;;;;;5049960;28;20199;-60
2022/10/27 17:21:49;;;;;;;6.40;3.63;;;21.90;99.90;;;;;;5051338;28;20294;-60
2022/10/27 17:24:15;;;;;;;6.40;4.00;;;;;;;;;;5051638;28;20190;-60
2022/10/27 17:26:41;;;;;;;7.17;4.13;;;;;;;;;;5060923;28;20293;-60
2022/10/27 17:29:07;;;;;;;6.80;4.10;;;21.50;99.90;;;;;;5070718;28;20258;-59
2022/10/27 17:31:32;;;;;;;6.40;4.20;;;21.50;99.90;;;;;;5071694;28;20175;-59
2022/10/27 17:33:59;;;;;;;5.63;4.07;;;;;;;;;;5070981;28;20702;-60
2022/10/27 17:36:26;;;;;;;6.53;4.10;;;20.70;99.90;;;;;;5071611;28;20296;-60
2022/10/27 17:38:52;;;;;;;6.23;3.93;;;;;;;;;;5071318;28;20178;-60
2022/10/27 17:41:17;;;;;;;4.80;3.43;;;21.10;99.90;;;;;;5071631;28;20166;-60
2022/10/27 17:43:43;;;;;;;8.47;3.83;;;;;;;;;;5070717;28;20444;-60
2022/10/27 17:46:17;;;;;;;10.77;6.93;;;20.80;99.90;;;;;;5071055;28;20189;-60
2022/10/27 17:48:45;;;;;;;10.17;7.87;;;20.90;99.90;;;;;;5071163;28;20241;-60
2022/10/27 17:51:18;;;;;;;6.23;5.10;;;20.70;99.90;;;;;;5070314;28;20178;-59
2022/10/27 17:53:44;;;;;;;7.40;4.20;;;20.70;99.90;;;;;;5070530;28;20205;-59
2022/10/27 17:56:13;;;;;;;7.43;3.60;;;20.60;99.90;;;;;;5070714;28;20195;-60
2022/10/27 17:58:40;;;;;;;6.40;4.40;;;20.50;99.90;;;;;;5071233;28;20257;-60
2022/10/27 18:01:23;;;;;;;8.77;6.50;;;20.40;99.90;;;;;;5070238;28;20238;-60
2022/10/27 18:03:50;;;;;;;9.33;5.23;;;20.40;99.90;;;;;;5070258;28;20196;-60
2022/10/27 18:06:19;;;;;;;7.10;3.87;;;20.30;99.90;;;;;;5067151;28;20706;-60
2022/10/27 18:08:45;;;;;;;6.07;3.27;;;20.30;99.90;;;;;;5070656;28;20263;-60
2022/10/27 18:11:12;;;;;;;3.63;3.10;;;20.20;99.90;;;;;;5070376;28;20740;-58
2022/10/27 18:13:40;;;;;;;5.27;4.17;;;20.10;99.90;;;;;;5070348;28;20234;-58
2022/10/27 18:16:23;;;;;;;4.80;3.30;;;20.00;99.90;;;;;;5070389;28;20295;-60
2022/10/27 18:18:53;;;;;;;4.80;3.27;;;19.90;99.90;;;;;;5069512;28;20635;-59
2022/10/27 18:21:19;;;;;;;5.63;2.70;;;19.80;99.90;;;;;;5070344;28;20176;-59
2022/10/27 18:23:49;;;;;;;5.30;2.63;;;19.70;99.90;;;;;;5065190;28;20180;-59
2022/10/27 18:26:15;;;;;;;5.83;3.30;;;19.70;99.90;;;;;;5069667;28;20668;-59
2022/10/27 18:28:44;;;;;;;5.33;3.20;;;19.60;99.90;;;;;;5069469;28;20188;-60
2022/10/27 18:31:10;;;;;;;6.23;3.17;;;19.50;99.90;;;;;;5070377;28;20212;-59
2022/10/27 18:33:35;;;;;;;5.23;3.00;;;19.40;99.90;;;;;;5070177;28;20226;-58
2022/10/27 18:36:06;;;;;;;8.80;7.27;;;19.40;99.90;;;;;;5063389;28;20324;-59
2022/10/27 18:38:32;;;;;;;11.53;10.17;;;19.30;99.90;;;;;;5069921;28;20185;-59
2022/10/27 18:40:58;;;;;;;24.00;21.93;;;19.40;99.90;;;;;;5070161;28;20178;-59
2022/10/27 18:43:24;;;;;;;9.00;7.70;;;19.40;99.90;;;;;;5069917;28;20216;-58
2022/10/27 18:45:50;;;;;;;8.03;7.30;;;19.40;99.90;;;;;;5065497;28;20190;-60
2022/10/27 18:48:15;;;;;;;9.70;8.43;;;19.40;99.90;;;;;;5068732;28;20199;-60
2022/10/27 18:50:41;;;;;;;12.40;11.03;;;19.40;99.90;;;;;;5065927;28;20194;-59
2022/10/27 18:53:07;;;;;;;10.83;9.33;;;19.30;99.90;;;;;;5070976;28;20531;-60
2022/10/27 18:55:36;;;;;;;8.17;5.73;;;19.30;99.90;;;;;;5064995;28;20182;-58
2022/10/27 18:58:03;;;;;;;11.10;5.50;;;19.30;99.90;;;;;;5069201;28;20186;-58
2022/10/27 19:00:29;;;;;;;8.50;5.27;;;19.20;99.90;;;;;;5069549;28;20179;-60
2022/10/27 19:02:55;;;;;;;9.23;6.23;;;19.10;99.90;;;;;;5051456;28;20174;-62
2022/10/27 19:05:21;;;;;;;8.23;5.00;;;19.10;99.90;;;;;;5070220;28;20631;-61
2022/10/27 19:07:46;;;;;;;15.33;13.53;;;19.00;99.90;;;;;;5070414;28;20206;-59
2022/10/27 19:10:12;;;;;;;14.23;10.97;;;18.90;99.90;;;;;;5070060;28;20221;-58
2022/10/27 19:12:38;;;;;;;11.43;9.23;;;18.90;99.90;;;;;;5066509;28;20186;-60
2022/10/27 19:15:03;;;;;;;18.23;13.17;;;18.80;99.90;;;;;;5068864;28;20667;-60
2022/10/27 19:17:29;;;;;;;15.13;11.67;;;18.80;99.90;;;;;;5070438;28;20331;-60
2022/10/27 19:19:56;;;;;;;10.93;8.93;;;18.80;99.90;;;;;;5064975;28;20183;-60
2022/10/27 19:22:21;;;;;;;13.13;8.53;;;18.70;99.90;;;;;;5052165;28;20661;-60
2022/10/27 19:24:47;;;;;;;10.90;8.63;;;18.70;99.90;;;;;;5069223;28;20329;-60
2022/10/27 19:27:13;;;;;;;17.57;13.60;;;18.60;99.90;;;;;;5068428;28;20278;-60
2022/10/27 19:29:39;;;;;;;10.37;8.10;;;18.70;99.90;;;;;;5070042;28;20174;-59
2022/10/27 19:32:06;;;;;;;7.37;5.60;;;18.60;99.90;;;;;;5069768;28;20261;-60
2022/10/27 19:34:32;;;;;;;9.30;6.33;;;18.60;99.90;;;;;;5068351;28;20225;-57
2022/10/27 19:36:57;;;;;;;9.63;6.73;;;18.50;99.90;;;;;;5069846;28;20206;-60
2022/10/27 19:39:23;;;;;;;25.90;20.70;;;18.40;99.90;;;;;;5069882;28;20186;-59
2022/10/27 19:41:48;;;;;;;102.63;92.33;;;18.40;99.90;;;;;;5069399;28;20178;-58
2022/10/27 19:44:14;;;;;;;46.27;41.67;;;18.40;99.90;;;;;;5062888;28;20286;-59
2022/10/27 19:46:40;;;;;;;11.80;9.20;;;18.40;99.90;;;;;;5059798;28;20194;-60
2022/10/27 19:49:07;;;;;;;35.00;31.23;;;18.30;99.90;;;;;;5067999;28;20699;-60
2022/10/27 19:51:36;;;;;;;78.97;65.80;;;18.30;99.90;;;;;;5068380;28;20193;-60
2022/10/27 19:54:02;;;;;;;83.03;68.00;;;18.30;99.90;;;;;;5071215;28;20182;-60
2022/10/27 19:56:32;;;;;;;51.87;41.87;;;18.20;99.90;;;;;;5069811;28;20710;-59
2022/10/27 19:59:01;;;;;;;33.23;29.37;;;18.20;99.90;;;;;;5068667;28;20174;-60
2022/10/27 20:01:36;;;;;;;13.77;12.17;;;18.10;99.90;;;;;;5072297;28;20185;-59
2022/10/27 20:04:04;;;;;;;11.27;8.47;;;18.10;99.90;;;;;;5065293;28;20198;-60
2022/10/27 20:06:31;;;;;;;8.90;7.43;;;18.00;99.90;;;;;;5072861;28;20198;-57
2022/10/27 20:08:56;;;;;;;11.17;5.30;;;17.90;99.90;;;;;;5071789;28;20182;-58